createdAt,value
2022-10-01T00:01:00.165Z,3.30
2022-10-01T00:05:06.370Z,2.50
2022-10-01T00:09:09.643Z,3.33
2022-10-01T00:13:13.085Z,3.00
2022-10-01T00:17:16.403Z,2.80
2022-10-01T00:21:22.553Z,2.35
2022-10-01T00:25:25.968Z,2.83
2022-10-01T00:29:28.967Z,1.95
2022-10-01T00:33:32.050Z,2.55
2022-10-01T00:37:37.623Z,2.40
2022-10-01T00:41:41.122Z,2.22
2022-10-01T00:45:44.029Z,2.45
2022-10-01T00:49:49.586Z,2.58
2022-10-01T00:54:01.185Z,2.10
2022-10-01T00:58:05.068Z,3.78
2022-10-01T01:02:07.944Z,2.58
2022-10-01T01:06:10.769Z,1.95
2022-10-01T01:10:17.438Z,2.38
2022-10-01T01:14:25.701Z,1.95
2022-10-01T01:18:34.740Z,3.72
2022-10-01T01:22:42.667Z,2.20
2022-10-01T01:26:59.777Z,1.90
2022-10-01T01:31:09.614Z,3.50
2022-10-01T01:35:16.483Z,2.42
2022-10-01T01:39:21.413Z,3.83
2022-10-01T01:43:29.355Z,3.13
2022-10-01T01:47:34.269Z,2.40
2022-10-01T01:51:42.183Z,3.83
2022-10-01T01:55:49.262Z,3.75
2022-10-01T01:59:52.107Z,2.50
2022-10-01T02:03:56.770Z,2.70
2022-10-01T02:08:33.877Z,3.25
2022-10-01T02:12:51.388Z,3.70
2022-10-01T02:17:01.969Z,2.75
2022-10-01T02:21:14.694Z,5.32
2022-10-01T02:25:19.642Z,3.47
2022-10-01T02:29:24.548Z,3.75
2022-10-01T02:33:32.038Z,4.60
2022-10-01T02:37:39.208Z,3.50
2022-10-01T02:41:44.308Z,3.13
2022-10-01T02:45:52.407Z,3.88
2022-10-01T02:49:55.612Z,3.65
2022-10-01T02:54:03.934Z,4.38
2022-10-01T02:58:07.978Z,3.53
2022-10-01T03:02:11.163Z,2.92
2022-10-01T03:06:14.154Z,3.28
2022-10-01T03:10:18.651Z,4.30
2022-10-01T03:14:21.517Z,4.50
2022-10-01T03:18:24.441Z,3.20
2022-10-01T03:22:27.284Z,5.85
2022-10-01T03:26:31.453Z,3.90
2022-10-01T03:30:34.332Z,6.70
2022-10-01T03:34:37.435Z,4.05
2022-10-01T03:38:40.233Z,3.95
2022-10-01T03:42:44.414Z,3.60
2022-10-01T03:46:47.342Z,3.42
2022-10-01T03:50:55.418Z,6.00
2022-10-01T03:54:58.264Z,3.67
2022-10-01T03:59:02.847Z,4.68
2022-10-01T04:03:06.679Z,5.03
2022-10-01T04:07:09.703Z,3.55
2022-10-01T04:11:12.608Z,4.82
2022-10-01T04:15:17.461Z,5.10
2022-10-01T04:19:20.984Z,2.97
2022-10-01T04:23:23.993Z,2.83
2022-10-01T04:27:26.875Z,3.38
2022-10-01T04:31:35.102Z,2.75
2022-10-01T04:35:38.758Z,1.60
2022-10-01T04:39:41.815Z,2.58
2022-10-01T04:43:44.610Z,2.88
2022-10-01T04:47:53.064Z,1.92
2022-10-01T04:51:55.953Z,2.33
2022-10-01T04:55:58.885Z,1.30
2022-10-01T05:00:04.084Z,1.73
2022-10-01T05:04:08.448Z,1.63
2022-10-01T05:08:11.364Z,1.60
2022-10-01T05:12:14.566Z,1.75
2022-10-01T05:16:17.519Z,2.15
2022-10-01T05:20:24.191Z,2.03
2022-10-01T05:24:27.151Z,1.73
2022-10-01T05:28:30.400Z,4.63
2022-10-01T05:32:33.246Z,2.80
2022-10-01T05:36:37.486Z,1.05
2022-10-01T05:40:40.298Z,1.67
2022-10-01T05:44:46.186Z,1.73
2022-10-01T05:48:50.184Z,1.38
2022-10-01T05:52:55.130Z,1.95
2022-10-01T05:56:57.994Z,1.08
2022-10-01T06:01:00.850Z,1.02
2022-10-01T06:05:03.730Z,0.90
2022-10-01T06:09:07.871Z,0.98
2022-10-01T06:13:13.402Z,1.17
2022-10-01T06:17:16.247Z,1.73
2022-10-01T06:21:19.088Z,3.15
2022-10-01T06:25:23.838Z,0.73
2022-10-01T06:29:27.091Z,2.40
2022-10-01T06:33:30.379Z,1.02
2022-10-01T06:37:37.244Z,0.95
2022-10-01T06:41:43.468Z,0.60
2022-10-01T06:45:51.101Z,1.63
2022-10-01T06:49:54.002Z,0.88
2022-10-01T06:53:58.875Z,2.20
2022-10-01T06:58:06.356Z,0.85
2022-10-01T07:02:21.188Z,0.60
2022-10-01T07:06:24.104Z,0.68
2022-10-01T07:10:26.883Z,0.68
2022-10-01T07:14:31.171Z,0.68
2022-10-01T07:18:34.065Z,0.93
2022-10-01T07:22:37.815Z,0.60
2022-10-01T07:26:40.718Z,1.10
2022-10-01T07:30:47.391Z,0.88
2022-10-01T07:34:51.194Z,2.08
2022-10-01T07:38:54.105Z,0.70
2022-10-01T07:42:57.564Z,1.08
2022-10-01T07:47:02.015Z,0.60
2022-10-01T07:51:05.041Z,0.80
2022-10-01T07:55:10.943Z,0.50
2022-10-01T07:59:13.767Z,0.40
2022-10-01T08:03:17.905Z,0.73
2022-10-01T08:07:21.222Z,0.68
2022-10-01T08:11:24.639Z,0.73
2022-10-01T08:15:27.918Z,0.40
2022-10-01T08:19:32.110Z,0.40
2022-10-01T08:23:35.381Z,1.58
2022-10-01T08:27:38.274Z,1.23
2022-10-01T08:31:41.111Z,0.80
2022-10-01T08:35:45.390Z,1.63
2022-10-01T08:39:48.204Z,0.40
2022-10-01T08:43:53.479Z,0.35
2022-10-01T08:48:03.044Z,0.75
2022-10-01T08:52:15.997Z,0.70
2022-10-01T08:56:23.573Z,0.70
2022-10-01T09:00:36.100Z,0.30
2022-10-01T09:04:39.057Z,0.95
2022-10-01T09:08:54.447Z,0.82
2022-10-01T09:13:14.658Z,0.55
2022-10-01T09:17:24.260Z,0.50
2022-10-01T09:21:43.873Z,0.45
2022-10-01T09:25:51.410Z,0.60
2022-10-01T09:30:00.722Z,0.80
2022-10-01T09:34:10.070Z,0.50
2022-10-01T09:38:19.817Z,1.00
2022-10-01T09:42:28.195Z,1.17
2022-10-01T09:46:31.478Z,0.60
2022-10-01T09:50:41.713Z,0.77
2022-10-01T09:54:48.165Z,0.70
2022-10-01T09:58:56.995Z,1.17
2022-10-01T10:03:00.783Z,1.08
2022-10-01T10:07:05.902Z,1.40
2022-10-01T10:11:11.590Z,1.67
2022-10-01T10:15:19.542Z,1.73
2022-10-01T10:19:25.797Z,1.65
2022-10-01T10:23:29.325Z,3.50
2022-10-01T10:27:32.530Z,2.45
2022-10-01T10:31:42.633Z,1.63
2022-10-01T10:35:45.522Z,1.25
2022-10-01T10:39:51.984Z,1.33
2022-10-01T10:44:02.148Z,1.80
2022-10-01T10:48:12.768Z,1.48
2022-10-01T10:52:25.192Z,3.70
2022-10-01T10:56:28.045Z,3.03
2022-10-01T11:00:30.978Z,1.83
2022-10-01T11:04:42.668Z,3.20
2022-10-01T11:08:57.013Z,2.13
2022-10-01T11:13:32.687Z,1.77
2022-10-01T11:17:55.132Z,3.40
2022-10-01T11:22:19.481Z,4.95
2022-10-01T11:26:29.929Z,2.78
2022-10-01T11:30:42.450Z,2.80
2022-10-01T11:35:05.043Z,3.42
2022-10-01T11:39:14.076Z,2.58
2022-10-01T11:43:22.270Z,3.50
2022-10-01T11:47:31.541Z,3.53
2022-10-01T11:51:42.673Z,3.20
2022-10-01T11:56:10.453Z,3.70
2022-10-01T12:00:15.894Z,2.60
2022-10-01T12:04:32.191Z,5.93
2022-10-01T12:08:38.228Z,4.32
2022-10-01T12:12:48.230Z,2.53
2022-10-01T12:16:55.818Z,3.38
2022-10-01T12:21:01.266Z,1.58
2022-10-01T12:25:04.501Z,1.35
2022-10-01T12:29:15.830Z,3.17
2022-10-01T12:33:44.890Z,1.52
2022-10-01T12:38:08.615Z,1.73
2022-10-01T12:42:31.290Z,3.03
2022-10-01T12:46:43.017Z,1.63
2022-10-01T12:50:53.284Z,1.48
2022-10-01T12:55:08.962Z,1.20
2022-10-01T12:59:35.239Z,1.85
2022-10-01T13:04:08.713Z,1.20
2022-10-01T13:08:29.779Z,2.20
2022-10-01T13:12:46.604Z,1.85
2022-10-01T13:16:57.067Z,3.10
2022-10-01T13:21:08.770Z,2.65
2022-10-01T13:25:25.616Z,2.20
2022-10-01T13:29:38.451Z,4.13
2022-10-01T13:33:42.304Z,3.25
2022-10-01T13:37:46.520Z,2.67
2022-10-01T13:41:50.534Z,3.00
2022-10-01T13:45:55.233Z,3.17
2022-10-01T13:50:03.597Z,3.33
2022-10-01T13:54:18.763Z,1.90
2022-10-01T13:58:32.160Z,3.22
2022-10-01T14:02:37.226Z,2.15
2022-10-01T14:06:44.544Z,1.38
2022-10-01T14:11:13.428Z,3.80
2022-10-01T14:15:36.346Z,4.72
2022-10-01T14:19:46.812Z,3.22
2022-10-01T14:23:54.689Z,3.63
2022-10-01T14:28:13.289Z,2.63
2022-10-01T14:32:27.370Z,2.03
2022-10-01T14:36:35.076Z,4.53
2022-10-01T14:40:40.326Z,2.30
2022-10-01T14:44:46.375Z,4.03
2022-10-01T14:48:59.162Z,5.35
2022-10-01T14:53:02.336Z,4.63
2022-10-01T14:57:10.991Z,3.13
2022-10-01T15:01:20.325Z,4.68
2022-10-01T15:05:26.163Z,2.10
2022-10-01T15:09:34.390Z,4.60
2022-10-01T15:13:40.405Z,7.68
2022-10-01T15:17:44.688Z,3.67
2022-10-01T15:21:51.425Z,5.13
2022-10-01T15:25:55.653Z,4.93
2022-10-01T15:29:59.612Z,3.10
2022-10-01T15:34:04.853Z,5.18
2022-10-01T15:38:07.762Z,10.70
2022-10-01T15:42:22.306Z,11.77
2022-10-01T15:46:32.710Z,2.88
2022-10-01T15:50:41.506Z,5.20
2022-10-01T15:54:46.342Z,5.88
2022-10-01T15:58:53.193Z,2.78
2022-10-01T16:02:58.319Z,2.67
2022-10-01T16:07:02.568Z,4.75
2022-10-01T16:11:18.884Z,7.20
2022-10-01T16:15:26.667Z,4.13
2022-10-01T16:19:31.339Z,5.63
2022-10-01T16:23:37.323Z,6.15
2022-10-01T16:27:47.162Z,7.82
2022-10-01T16:31:51.349Z,9.07
2022-10-01T16:36:07.911Z,4.50
2022-10-01T16:40:16.241Z,6.13
2022-10-01T16:44:19.774Z,5.40
2022-10-01T16:48:23.276Z,7.45
2022-10-01T16:52:26.500Z,8.95
2022-10-01T16:56:31.112Z,7.50
2022-10-01T17:00:35.704Z,6.25
2022-10-01T17:04:38.977Z,6.38
2022-10-01T17:08:42.397Z,6.30
2022-10-01T17:12:47.997Z,5.97
2022-10-01T17:16:50.930Z,6.20
2022-10-01T17:20:53.899Z,9.38
2022-10-01T17:24:56.750Z,6.70
2022-10-01T17:29:01.110Z,5.68
2022-10-01T17:33:04.022Z,6.97
2022-10-01T17:37:06.822Z,6.47
2022-10-01T17:41:09.673Z,6.80
2022-10-01T17:45:15.137Z,7.53
2022-10-01T17:49:18.549Z,9.30
2022-10-01T17:53:22.096Z,6.13
2022-10-01T17:57:25.061Z,7.18
2022-10-01T18:01:29.725Z,6.65
2022-10-01T18:05:32.717Z,6.78
2022-10-01T18:09:36.804Z,6.78
2022-10-01T18:13:40.806Z,8.57
2022-10-01T18:17:51.401Z,8.48
2022-10-01T18:21:54.576Z,9.55
2022-10-01T18:25:57.550Z,6.32
2022-10-01T18:30:00.739Z,10.35
2022-10-01T18:34:13.797Z,8.20
2022-10-01T18:38:25.602Z,10.70
2022-10-01T18:42:40.304Z,5.57
2022-10-01T18:46:52.945Z,5.80
2022-10-01T18:51:02.858Z,6.63
2022-10-01T18:55:25.262Z,4.45
2022-10-01T19:00:03.186Z,6.38
2022-10-01T19:04:32.604Z,5.13
2022-10-01T19:09:03.710Z,4.05
2022-10-01T19:13:16.031Z,3.85
2022-10-01T19:17:32.103Z,5.55
2022-10-01T19:21:40.713Z,5.95
2022-10-01T19:25:51.007Z,6.18
2022-10-01T19:30:12.332Z,4.13
2022-10-01T19:34:19.755Z,5.03
2022-10-01T19:38:29.422Z,5.72
2022-10-01T19:42:38.097Z,6.05
2022-10-01T19:46:45.329Z,3.90
2022-10-01T19:50:54.521Z,4.82
2022-10-01T19:55:00.748Z,4.28
2022-10-01T19:59:08.734Z,3.05
2022-10-01T20:03:16.472Z,5.38
2022-10-01T20:07:25.282Z,5.28
2022-10-01T20:11:31.656Z,5.63
2022-10-01T20:15:45.294Z,3.20
2022-10-01T20:19:57.644Z,2.70
2022-10-01T20:24:08.404Z,4.22
2022-10-01T20:28:19.099Z,5.03
2022-10-01T20:32:31.101Z,6.93
2022-10-01T20:36:40.084Z,10.35
2022-10-01T20:40:49.566Z,4.38
2022-10-01T20:44:53.971Z,9.05
2022-10-01T20:49:03.925Z,6.75
2022-10-01T20:53:26.424Z,14.02
2022-10-01T20:57:35.494Z,10.55
2022-10-01T21:01:42.787Z,8.98
2022-10-01T21:05:51.642Z,13.23
2022-10-01T21:09:58.843Z,9.95
2022-10-01T21:14:08.122Z,8.93
2022-10-01T21:18:17.272Z,7.90
2022-10-01T21:22:32.529Z,8.00
2022-10-01T21:26:46.485Z,11.57
2022-10-01T21:31:03.124Z,10.88
2022-10-01T21:35:18.204Z,9.40
2022-10-01T21:39:31.102Z,10.45
2022-10-01T21:43:47.394Z,10.27
2022-10-01T21:48:03.955Z,11.57
2022-10-01T21:52:16.681Z,12.15
2022-10-01T21:56:38.372Z,11.15
2022-10-01T22:00:41.750Z,9.20
2022-10-01T22:04:50.073Z,14.32
2022-10-01T22:09:08.197Z,9.25
2022-10-01T22:13:16.778Z,12.77
2022-10-01T22:17:25.983Z,11.35
2022-10-01T22:21:35.892Z,9.65
2022-10-01T22:25:44.362Z,10.63
2022-10-01T22:29:53.749Z,10.18
2022-10-01T22:34:00.647Z,12.55
2022-10-01T22:38:08.011Z,11.48
2022-10-01T22:42:16.068Z,13.15
2022-10-01T22:46:40.149Z,8.48
2022-10-01T22:50:54.371Z,11.82
2022-10-01T22:55:10.767Z,9.55
2022-10-01T22:59:22.026Z,16.95
2022-10-01T23:03:41.963Z,15.13
2022-10-01T23:07:53.669Z,13.38
2022-10-01T23:12:02.229Z,16.58
2022-10-01T23:16:15.571Z,13.70
2022-10-01T23:20:29.708Z,12.63
2022-10-01T23:24:46.526Z,14.65
2022-10-01T23:29:07.327Z,13.20
2022-10-01T23:33:30.347Z,10.00
2022-10-01T23:38:05.007Z,12.13
2022-10-01T23:42:20.117Z,9.32
2022-10-01T23:46:27.668Z,12.18
2022-10-01T23:50:33.957Z,11.48
2022-10-01T23:54:41.026Z,13.10
2022-10-01T23:58:48.329Z,10.73
